Time;durP1;ratioP1;P1;durP2;ratioP2;P2;SDS_P1;SDS_P2;PMS_P1;PMS_P2;Temp;Humidity;BMP_temperature;BMP_pressure;BME280_temperature;BME280_humidity;BME280_pressure;Samples;Min_cycle;Max_cycle;Signal;HPM_P1;HPM_P2
2022/09/01 00:01:29;;;;;;;22.85;17.63;;;;;;;21.33;80.17;99752.03;5067567;28;20024;-29
2022/09/01 00:04:03;;;;;;;21.40;17.10;;;;;;;21.42;80.11;99758.41;5067691;28;20043;-33
2022/09/01 00:06:31;;;;;;;22.85;16.77;;;;;;;21.20;80.05;99767.97;5067685;28;20016;-28
2022/09/01 00:08:59;;;;;;;20.42;17.38;;;;;;;20.94;80.82;99780.34;5067574;28;20019;-29
2022/09/01 00:11:26;;;;;;;27.30;18.23;;;;;;;20.89;81.90;99777.72;5067634;28;20024;-31
2022/09/01 00:13:53;;;;;;;25.35;18.55;;;;;;;20.75;83.37;99778.44;5067584;28;20028;-28
2022/09/01 00:16:19;;;;;;;25.98;18.67;;;;;;;20.63;84.55;99781.59;5067847;28;20036;-39
2022/09/01 00:18:48;;;;;;;25.58;19.40;;;;;;;20.76;83.45;99774.66;5071345;28;20059;-30
2022/09/01 00:21:19;;;;;;;26.67;18.98;;;;;;;20.51;84.66;99780.38;5071666;28;20119;-30
2022/09/01 00:23:46;;;;;;;24.13;19.40;;;;;;;20.04;87.20;99770.16;5071686;28;20089;-33
2022/09/01 00:26:11;;;;;;;25.30;19.58;;;;;;;19.98;87.47;99778.59;5071583;28;20647;-28
2022/09/01 00:28:37;;;;;;;27.67;19.80;;;;;;;19.87;88.91;99780.63;5089809;28;20111;-37
2022/09/01 00:31:05;;;;;;;24.02;20.13;;;;;;;20.06;89.09;99797.75;5071393;28;20476;-28
2022/09/01 00:33:31;;;;;;;;;;;;;;;20.42;87.16;99794.56;5089963;28;20059;-29
2022/09/01 00:35:57;;;;;;;26.23;20.30;;;;;;;20.51;86.54;99783.88;5090010;28;19961;-31
2022/09/01 00:38:22;;;;;;;25.52;20.15;;;;;;;20.36;87.30;99797.66;5071679;28;20032;-33
2022/09/01 00:40:48;;;;;;;26.67;20.35;;;;;;;20.10;88.48;99778.19;5089531;28;20030;-29
2022/09/01 00:43:34;;;;;;;28.25;20.48;;;;;;;20.04;89.92;99789.09;5071301;28;20034;-29
2022/09/01 00:46:00;;;;;;;25.85;19.80;;;;;;;20.03;89.98;99767.72;5089513;28;20528;-30
2022/09/01 00:48:25;;;;;;;24.52;19.95;;;;;;;20.09;89.72;99780.09;5089682;28;20024;-31
2022/09/01 00:50:51;;;;;;;24.77;20.00;;;;;;;20.03;90.83;99773.16;5071194;28;20036;-33
2022/09/01 00:53:17;;;;;;;31.95;22.08;;;;;;;20.09;90.39;99771.19;5071242;28;20024;-28
2022/09/01 00:55:43;;;;;;;25.83;19.83;;;;;;;20.04;90.66;99770.16;5070977;28;20043;-30
2022/09/01 00:58:09;;;;;;;28.02;20.38;;;;;;;19.92;90.77;99756.22;5070974;28;20020;-30
2022/09/01 01:00:40;;;;;;;28.58;19.77;;;;;;;19.92;91.60;99769.75;5070530;28;20035;-33
2022/09/01 01:03:07;;;;;;;24.17;19.90;;;;;;;19.96;91.92;99753.72;5070964;28;20031;-30
2022/09/01 01:05:35;;;;;;;;;;;;;;;20.31;89.74;99770.63;5071159;28;20031;-29
2022/09/01 01:08:03;;;;;;;25.02;18.80;;;;;;;20.44;88.56;99772.63;5070872;28;19938;-33
2022/09/01 01:10:35;;;;;;;27.45;20.85;;;;;;;20.44;87.47;99773.44;5088860;28;20542;-36
2022/09/01 01:13:01;;;;;;;27.30;22.38;;;;;;;20.55;86.37;99759.75;5070373;28;20054;-32
2022/09/01 01:15:28;;;;;;;27.70;20.70;;;;;;;20.45;86.75;99756.09;5089008;28;20032;-30
2022/09/01 01:17:54;;;;;;;27.98;19.98;;;;;;;20.36;87.22;99752.41;5070489;28;20065;-30
2022/09/01 01:23:29;;;;;;;25.05;20.40;;;;;;;20.14;87.89;99773.81;5089197;28;20096;-29
2022/09/01 01:25:59;;;;;;;28.63;21.35;;;;;;;20.11;88.78;99769.78;5070586;28;20024;-29
2022/09/01 01:28:29;;;;;;;28.27;20.67;;;;;;;20.12;88.35;99762.47;5069849;28;20032;-32
2022/09/01 01:31:01;;;;;;;28.02;20.13;;;;;;;19.83;88.91;99766.06;5070387;28;20120;-30
2022/09/01 01:33:32;;;;;;;28.17;20.65;;;;;;;19.86;89.12;99769.00;5070404;28;20032;-31
2022/09/01 01:35:58;;;;;;;24.98;19.50;;;;;;;19.80;90.99;99759.34;5070122;28;20055;-31
2022/09/01 01:38:26;;;;;;;23.70;18.92;;;;;;;19.61;89.62;99764.63;5070513;28;20032;-29
2022/09/01 01:40:53;;;;;;;25.58;18.23;;;;;;;19.35;90.38;99745.16;5070106;28;20734;-28
2022/09/01 01:43:20;;;;;;;23.90;19.58;;;;;;;19.32;91.42;99758.44;5070048;28;20036;-29
2022/09/01 01:45:50;;;;;;;24.70;18.63;;;;;;;19.07;92.85;99746.75;5070024;28;20548;-33
2022/09/01 01:48:22;;;;;;;28.48;20.35;;;;;;;18.90;94.64;99757.13;5088230;28;20043;-29
2022/09/01 01:50:49;;;;;;;29.02;21.25;;;;;;;18.72;96.38;99756.72;5069749;28;20064;-29
2022/09/01 01:53:18;;;;;;;28.23;21.33;;;;;;;18.57;97.39;99727.09;5069947;28;20024;-31
2022/09/01 01:55:47;;;;;;;26.90;21.40;;;;;;;18.81;96.73;99741.53;5069978;28;20020;-30
2022/09/01 01:58:14;;;;;;;26.90;20.75;;;;;;;18.77;96.61;99726.13;5069841;28;20067;-32
2022/09/01 02:00:43;;;;;;;28.38;21.55;;;;;;;18.61;96.94;99701.13;5069505;28;20055;-29
2022/09/01 02:03:11;;;;;;;31.17;22.48;;;;;;;18.60;97.86;99700.31;5069419;28;20032;-33
2022/09/01 02:05:38;;;;;;;27.05;20.85;;;;;;;18.81;98.61;99728.03;5069893;28;20102;-32
2022/09/01 02:08:07;;;;;;;32.77;21.20;;;;;;;18.79;97.42;99734.81;5070022;28;20034;-30
2022/09/01 02:10:37;;;;;;;26.48;20.50;;;;;;;18.71;98.32;99719.97;5069722;28;20262;-31
2022/09/01 02:13:06;;;;;;;24.50;19.48;;;;;;;18.68;98.56;99721.34;5069559;28;20514;-30
2022/09/01 02:15:43;;;;;;;24.85;19.27;;;;;;;18.64;99.45;99733.00;5069600;28;20028;-29
2022/09/01 02:18:18;;;;;;;26.27;19.13;;;;;;;18.74;99.22;99727.53;5087825;28;20935;-29
2022/09/01 02:20:46;;;;;;;21.90;18.35;;;;;;;18.81;98.46;99713.72;5087664;28;20103;-28
2022/09/01 02:23:14;;;;;;;23.08;18.33;;;;;;;18.86;98.36;99724.50;5087518;28;20120;-29
2022/09/01 02:25:42;;;;;;;;;;;;;;;19.21;94.90;99736.91;5087980;28;20031;-30
2022/09/01 02:28:11;;;;;;;23.40;17.15;;;;;;;19.10;95.04;99719.13;5068907;28;19916;-31
2022/09/01 02:30:40;;;;;;;22.58;17.67;;;;;;;19.26;94.64;99728.72;5087556;28;20035;-31
2022/09/01 02:33:07;;;;;;;24.95;17.92;;;;;;;19.07;96.13;99730.53;5069178;28;20177;-30
2022/09/01 02:35:36;;;;;;;24.90;18.08;;;;;;;18.80;96.70;99737.22;5087430;28;20495;-32
2022/09/01 02:38:04;;;;;;;22.42;17.48;;;;;;;19.02;96.09;99722.44;5069066;28;20041;-29
2022/09/01 02:40:31;;;;;;;22.60;17.05;;;;;;;19.28;95.26;99736.56;5068787;28;20122;-33
2022/09/01 02:42:58;;;;;;;23.60;17.33;;;;;;;19.17;94.50;99730.44;5068796;28;20039;-28
2022/09/01 02:45:25;;;;;;;25.83;18.40;;;;;;;19.26;93.51;99734.13;5086844;28;20056;-29
2022/09/01 02:47:52;;;;;;;22.42;18.15;;;;;;;19.08;94.01;99718.63;5087640;28;20035;-29
2022/09/01 02:50:19;;;;;;;22.13;18.47;;;;;;;19.22;94.12;99738.50;5068873;28;20028;-30
2022/09/01 02:52:48;;;;;;;26.20;20.13;;;;;;;19.32;94.08;99734.09;5068644;28;20523;-29
2022/09/01 02:55:20;;;;;;;26.08;18.85;;;;;;;19.32;93.85;99731.41;5068401;28;20046;-33
2022/09/01 02:57:54;;;;;;;23.23;17.83;;;;;;;19.12;96.71;99749.41;5068957;28;20028;-30
2022/09/01 03:00:21;;;;;;;26.08;19.13;;;;;;;19.35;95.45;99749.72;5086935;28;20024;-30
2022/09/01 03:02:52;;;;;;;24.75;18.10;;;;;;;19.45;94.82;99750.47;5086840;28;20502;-29
2022/09/01 03:05:24;;;;;;;23.65;18.52;;;;;;;19.05;95.05;99732.72;5068726;28;20033;-28
2022/09/01 03:07:55;;;;;;;22.33;17.42;;;;;;;18.96;96.28;99745.19;5086745;28;20582;-34
2022/09/01 03:10:23;;;;;;;26.25;18.25;;;;;;;18.99;95.21;99739.25;5086841;28;20035;-28
2022/09/01 03:12:48;;;;;;;;;;;;;;;19.29;93.84;99749.00;5068942;28;20093;-36
2022/09/01 03:15:14;;;;;;;25.38;19.70;;;;;;;19.39;93.08;99756.19;5086665;28;19912;-32
2022/09/01 03:17:40;;;;;;;26.35;19.67;;;;;;;19.17;93.74;99740.47;5086646;28;20402;-31
2022/09/01 03:20:06;;;;;;;25.15;18.80;;;;;;;19.35;93.28;99757.84;5086587;28;20028;-33
2022/09/01 03:22:32;;;;;;;24.58;19.42;;;;;;;19.18;94.07;99752.88;5086510;28;20051;-29
2022/09/01 03:24:58;;;;;;;27.88;18.55;;;;;;;19.12;94.80;99765.63;5086584;28;20032;-30
2022/09/01 03:27:24;;;;;;;25.55;19.77;;;;;;;19.06;95.16;99755.94;5068443;28;20024;-29
2022/09/01 03:29:49;;;;;;;26.67;19.23;;;;;;;19.30;93.56;99757.91;5085328;28;20110;-34
2022/09/01 03:32:15;;;;;;;29.83;19.45;;;;;;;19.21;93.34;99763.94;5085290;28;20016;-30
2022/09/01 03:34:40;;;;;;;26.17;19.35;;;;;;;19.07;93.11;99744.03;5086209;28;20089;-31
2022/09/01 03:37:06;;;;;;;27.58;19.88;;;;;;;19.44;91.99;99772.38;5068191;28;20116;-28
2022/09/01 03:39:32;;;;;;;25.60;19.75;;;;;;;19.10;94.25;99773.19;5068384;28;20191;-28
2022/09/01 03:41:59;;;;;;;25.27;19.52;;;;;;;19.34;93.24;99775.19;5086580;28;20592;-30
2022/09/01 03:44:24;;;;;;;27.20;19.67;;;;;;;19.31;92.62;99779.25;5086376;28;20102;-35
2022/09/01 03:46:51;;;;;;;24.67;19.40;;;;;;;19.23;92.90;99772.56;5086055;28;20054;-29
2022/09/01 03:49:23;;;;;;;27.95;18.98;;;;;;;19.22;92.55;99754.72;5086096;28;20027;-28
2022/09/01 03:51:51;;;;;;;25.52;19.23;;;;;;;19.34;91.81;99756.25;5067704;28;20028;-32
2022/09/01 03:54:17;;;;;;;24.00;18.92;;;;;;;19.56;91.41;99772.81;5068063;28;20024;-29
2022/09/01 03:56:44;;;;;;;24.40;17.95;;;;;;;19.23;92.99;99772.56;5068283;28;20055;-32
2022/09/01 03:59:15;;;;;;;22.70;17.33;;;;;;;18.92;95.10;99782.81;5086022;28;20423;-31
2022/09/01 04:01:42;;;;;;;21.58;17.17;;;;;;;19.11;95.12;99771.31;5067958;28;20373;-30
2022/09/01 04:04:12;;;;;;;26.30;18.23;;;;;;;19.12;93.51;99754.00;5067907;28;20024;-28
2022/09/01 04:06:40;;;;;;;24.67;18.55;;;;;;;19.37;92.50;99767.31;5086267;28;20266;-29
2022/09/01 04:09:06;;;;;;;21.05;17.83;;;;;;;19.09;93.81;99777.00;5067799;28;20111;-34
2022/09/01 04:11:32;;;;;;;25.83;19.75;;;;;;;19.04;95.35;99779.72;5086411;28;20551;-29
2022/09/01 04:13:58;;;;;;;25.63;19.67;;;;;;;19.06;94.00;99767.56;5067883;28;20024;-32
2022/09/01 04:19:18;;;;;;;25.92;19.75;;;;;;;19.06;93.90;99766.75;5086220;28;20042;-28
2022/09/01 04:21:52;;;;;;;29.20;20.30;;;;;;;19.12;94.45;99786.44;5085961;28;20475;-28
2022/09/01 04:24:19;;;;;;;29.13;21.05;;;;;;;19.21;93.92;99785.56;5085822;28;20380;-29
2022/09/01 04:26:47;;;;;;;27.23;20.50;;;;;;;19.27;93.90;99789.81;5067618;28;20024;-28
2022/09/01 04:29:17;;;;;;;26.48;20.10;;;;;;;19.28;93.35;99785.22;5085686;28;20035;-35
2022/09/01 04:31:43;;;;;;;25.40;19.92;;;;;;;19.15;93.92;99775.88;5067753;28;20040;-32
2022/09/01 04:34:12;;;;;;;26.83;20.10;;;;;;;19.13;95.02;99786.16;5085906;28;20047;-28
2022/09/01 04:36:40;;;;;;;26.45;20.13;;;;;;;19.04;95.79;99780.56;5067298;28;20028;-29
2022/09/01 04:39:11;;;;;;;27.38;20.70;;;;;;;19.10;96.56;99778.59;5067455;28;20024;-31
2022/09/01 04:41:40;;;;;;;26.65;20.48;;;;;;;19.40;94.78;99782.16;5085457;28;20028;-32
2022/09/01 04:44:06;;;;;;;29.50;19.63;;;;;;;19.43;93.60;99779.69;5067539;28;20116;-28
2022/09/01 04:46:34;;;;;;;27.00;19.85;;;;;;;19.43;93.83;99785.09;5067034;28;20098;-33
2022/09/01 04:49:06;;;;;;;25.20;20.05;;;;;;;19.38;93.65;99760.00;5085443;28;20116;-30
2022/09/01 04:51:32;;;;;;;27.00;19.40;;;;;;;19.52;93.72;99768.25;5085598;28;20032;-28
2022/09/01 04:53:58;;;;;;;30.98;21.38;;;;;;;19.55;94.69;99767.66;5085620;28;20035;-28
2022/09/01 04:56:25;;;;;;;26.45;19.58;;;;;;;19.58;94.82;99778.72;5085677;28;20028;-31
2022/09/01 04:58:55;;;;;;;29.92;21.85;;;;;;;19.63;94.64;99786.78;5050617;28;20035;-29
2022/09/01 05:01:23;;;;;;;28.77;21.60;;;;;;;19.46;96.36;99791.81;5067225;28;20510;-29
2022/09/01 05:03:58;;;;;;;28.27;20.90;;;;;;;19.41;97.08;99783.75;5068219;28;20035;-30
2022/09/01 05:06:24;;;;;;;26.80;20.27;;;;;;;19.61;96.09;99783.56;5088808;28;20476;-29
2022/09/01 05:08:50;;;;;;;25.55;20.20;;;;;;;19.72;96.15;99783.50;5070740;28;20080;-29
2022/09/01 05:11:16;;;;;;;26.65;20.50;;;;;;;19.73;95.22;99769.66;5070866;28;20024;-29
2022/09/01 05:13:46;;;;;;;27.67;20.45;;;;;;;19.92;95.04;99791.41;5089273;28;20032;-30
2022/09/01 05:16:20;;;;;;;26.88;19.98;;;;;;;19.93;93.62;99771.34;5070967;28;20044;-29
2022/09/01 05:18:48;;;;;;;26.80;20.48;;;;;;;20.14;94.02;99790.88;5070414;28;20024;-32
2022/09/01 05:21:23;;;;;;;27.23;21.70;;;;;;;19.96;93.63;99768.09;5070407;28;20034;-30
2022/09/01 05:23:50;;;;;;;24.90;20.13;;;;;;;20.16;93.41;99787.88;5070727;28;20028;-32
2022/09/01 05:26:22;;;;;;;25.55;20.67;;;;;;;20.25;93.33;99786.94;5070517;28;20464;-28
2022/09/01 05:28:52;;;;;;;25.77;20.30;;;;;;;20.34;91.52;99792.50;5070372;28;20024;-31
2022/09/01 05:31:18;;;;;;;30.27;21.45;;;;;;;20.20;92.40;99769.94;5088676;28;20400;-28
2022/09/01 05:33:47;;;;;;;26.88;21.30;;;;;;;20.37;92.67;99789.25;5070977;28;20024;-29
2022/09/01 05:36:16;;;;;;;29.90;21.20;;;;;;;20.27;92.05;99789.38;5070593;28;20185;-30
2022/09/01 05:38:43;;;;;;;30.85;23.35;;;;;;;20.24;92.68;99798.84;5088358;28;20020;-30
2022/09/01 05:41:13;;;;;;;35.45;22.73;;;;;;;20.13;93.73;99766.81;5070225;28;20032;-30
2022/09/01 05:43:48;;;;;;;30.48;22.00;;;;;;;20.62;92.53;99784.59;5069926;28;20092;-29
2022/09/01 05:46:17;;;;;;;27.02;20.65;;;;;;;20.90;90.31;99803.69;5088207;28;20092;-33
2022/09/01 05:48:44;;;;;;;29.83;21.50;;;;;;;21.06;88.96;99799.66;5069824;28;20024;-33
2022/09/01 05:51:13;;;;;;;26.98;20.98;;;;;;;20.93;88.34;99784.16;5070126;28;20024;-32
2022/09/01 05:53:39;;;;;;;27.38;20.90;;;;;;;20.80;89.88;99797.34;5088184;28;20020;-30
2022/09/01 05:56:08;;;;;;;25.80;20.83;;;;;;;20.77;89.14;99794.41;5088166;28;20408;-30
2022/09/01 05:58:35;;;;;;;28.15;21.55;;;;;;;20.97;90.14;99806.88;5087984;28;20418;-28
2022/09/01 06:01:01;;;;;;;22.90;19.23;;;;;;;21.34;88.58;99800.56;5088320;28;20132;-34
2022/09/01 06:03:27;;;;;;;27.23;20.98;;;;;;;21.39;86.92;99796.94;5088355;28;20408;-30
2022/09/01 06:06:07;;;;;;;25.48;21.35;;;;;;;21.27;87.01;99795.53;5069720;28;20085;-33
2022/09/01 06:08:34;;;;;;;25.83;19.83;;;;;;;21.37;87.17;99793.72;5104029;28;20031;-37
2022/09/01 06:11:00;;;;;;;25.30;20.00;;;;;;;21.52;85.45;99790.81;5089684;28;20034;-30
2022/09/01 06:13:26;;;;;;;23.98;19.92;;;;;;;21.62;85.92;99804.19;5108778;28;20032;-36
2022/09/01 06:15:52;;;;;;;23.50;20.05;;;;;;;21.86;85.56;99800.47;5107984;28;20032;-31
2022/09/01 06:18:20;;;;;;;23.80;17.58;;;;;;;21.92;83.43;99803.91;5108368;28;20059;-33
2022/09/01 06:20:46;;;;;;;25.42;19.30;;;;;;;22.01;83.24;99792.06;5108012;28;20051;-31
2022/09/01 06:23:14;;;;;;;21.45;18.92;;;;;;;21.85;83.52;99793.47;5072978;28;20100;-28
2022/09/01 06:25:45;;;;;;;25.75;18.30;;;;;;;22.01;83.68;99800.19;5107624;28;20482;-30
2022/09/01 06:28:21;;;;;;;21.50;16.27;;;;;;;22.08;80.79;99797.88;5108197;28;20034;-29
2022/09/01 06:30:47;;;;;;;23.83;18.05;;;;;;;22.18;81.99;99796.06;5107725;28;20038;-28
2022/09/01 06:33:13;;;;;;;25.30;16.77;;;;;;;22.21;80.38;99792.72;5108082;28;20031;-31
2022/09/01 06:35:41;;;;;;;22.17;16.75;;;;;;;22.38;80.93;99808.47;5106906;28;20035;-33
2022/09/01 06:38:09;;;;;;;24.85;17.58;;;;;;;22.64;81.10;99793.22;5107377;28;20125;-34
2022/09/01 06:40:40;;;;;;;20.67;17.15;;;;;;;23.00;78.60;99799.72;5089517;28;20410;-29
2022/09/01 06:43:07;;;;;;;23.58;17.05;;;;;;;22.79;77.64;99793.97;5089565;28;20057;-35
2022/09/01 06:45:39;;;;;;;22.88;17.52;;;;;;;22.92;78.19;99803.19;5089115;28;20562;-33
2022/09/01 06:48:05;;;;;;;21.38;16.63;;;;;;;23.09;79.07;99806.09;5089327;28;20479;-28
2022/09/01 06:50:31;;;;;;;20.10;16.50;;;;;;;23.29;75.67;99806.69;5089072;28;20023;-31
2022/09/01 06:53:07;;;;;;;26.17;17.20;;;;;;;23.25;76.58;99804.59;5107483;28;20156;-30
2022/09/01 06:55:36;;;;;;;21.65;16.95;;;;;;;23.27;77.64;99807.00;5107673;28;20497;-29
2022/09/01 06:58:05;;;;;;;20.25;14.68;;;;;;;23.26;76.06;99814.34;5107431;28;20031;-31
2022/09/01 07:00:38;;;;;;;17.40;14.55;;;;;;;23.19;74.86;99818.63;5089151;28;20176;-29
2022/09/01 07:03:08;;;;;;;21.73;14.20;;;;;;;23.24;76.88;99816.59;5107264;28;20035;-30
2022/09/01 07:05:45;;;;;;;18.08;13.90;;;;;;;23.36;75.93;99812.50;5107416;28;20035;-29
2022/09/01 07:08:16;;;;;;;20.27;14.17;;;;;;;23.50;74.03;99807.78;5089091;28;20119;-29
2022/09/01 07:10:50;;;;;;;18.77;14.18;;;;;;;23.49;74.76;99813.53;5106962;28;20689;-29
2022/09/01 07:13:21;;;;;;;18.95;13.73;;;;;;;23.65;73.37;99812.81;5107230;28;20031;-29
2022/09/01 07:15:49;;;;;;;17.38;13.45;;;;;;;23.54;73.37;99797.88;5107212;28;20130;-33
2022/09/01 07:18:16;;;;;;;18.00;14.70;;;;;;;23.76;74.08;99804.38;5089123;28;20024;-28
2022/09/01 07:20:43;;;;;;;18.90;13.93;;;;;;;24.01;74.00;99806.47;5107138;28;20024;-29
2022/09/01 07:23:10;;;;;;;19.08;14.13;;;;;;;24.00;70.80;99790.41;5088464;28;20634;-28
2022/09/01 07:25:42;;;;;;;19.20;13.13;;;;;;;24.08;71.49;99799.75;5088530;28;20463;-31
2022/09/01 07:28:08;;;;;;;19.40;13.75;;;;;;;24.13;71.91;99802.31;5087783;28;20032;-30
2022/09/01 07:30:42;;;;;;;17.77;13.00;;;;;;;24.35;71.01;99810.38;5107260;28;20491;-30
2022/09/01 07:33:10;;;;;;;17.30;11.90;;;;;;;24.54;66.94;99795.69;5088650;28;20061;-30
2022/09/01 07:35:37;;;;;;;17.85;13.20;;;;;;;24.53;68.69;99791.38;5088656;28;20024;-28
2022/09/01 07:38:05;;;;;;;21.92;12.48;;;;;;;24.74;67.88;99800.53;5088238;28;20035;-30
2022/09/01 07:40:30;;;;;;;;;;;;;;;24.92;66.99;99806.00;5088824;28;20051;-32
2022/09/01 07:42:56;;;;;;;17.07;12.10;;;;;;;24.96;67.01;99791.38;5106158;28;19962;-29
2022/09/01 07:45:24;;;;;;;15.88;11.88;;;;;;;25.28;67.70;99804.88;5105206;28;20310;-28
2022/09/01 07:47:50;;;;;;;15.35;12.80;;;;;;;25.24;64.64;99782.88;5088074;28;20114;-35
2022/09/01 07:50:17;;;;;;;14.52;11.48;;;;;;;25.50;67.13;99799.22;5106649;28;20047;-29
2022/09/01 07:52:42;;;;;;;15.00;11.18;;;;;;;25.62;65.71;99774.75;5106366;28;20028;-34
2022/09/01 07:55:11;;;;;;;12.70;11.38;;;;;;;25.52;66.50;99775.13;5087925;28;20039;-34
2022/09/01 07:57:39;;;;;;;13.70;11.55;;;;;;;25.95;63.72;99785.09;5088431;28;20058;-29
2022/09/01 08:00:05;;;;;;;14.60;11.20;;;;;;;26.31;63.64;99794.69;5106371;28;20561;-33
2022/09/01 08:02:32;;;;;;;17.17;11.77;;;;;;;26.28;63.76;99778.97;5088188;28;20027;-28
2022/09/01 08:04:59;;;;;;;17.58;11.07;;;;;;;26.50;62.13;99796.19;5106022;28;20031;-33
2022/09/01 08:07:25;;;;;;;30.23;14.05;;;;;;;26.70;63.05;99779.00;5106293;28;20023;-33
2022/09/01 08:09:50;;;;;;;14.85;10.60;;;;;;;26.89;60.60;99791.41;5106155;28;20788;-31
2022/09/01 08:12:16;;;;;;;15.15;10.95;;;;;;;26.99;60.08;99783.59;5106627;28;20471;-35
2022/09/01 08:14:41;;;;;;;13.88;9.95;;;;;;;27.35;60.24;99786.81;5106328;28;20422;-29
2022/09/01 08:17:07;;;;;;;16.17;10.40;;;;;;;27.37;60.42;99785.34;5106532;28;20123;-32
2022/09/01 08:19:32;;;;;;;16.75;10.48;;;;;;;27.36;59.20;99766.50;5106709;28;20118;-32
2022/09/01 08:21:58;;;;;;;13.75;10.48;;;;;;;27.70;59.05;99781.72;5106548;28;20019;-31
2022/09/01 08:24:24;;;;;;;15.30;9.57;;;;;;;27.72;56.61;99778.66;5106166;28;20467;-29
2022/09/01 08:26:49;;;;;;;14.32;10.15;;;;;;;27.86;57.04;99779.13;5105936;28;20395;-29
2022/09/01 08:29:14;;;;;;;15.32;9.75;;;;;;;27.73;55.68;99774.78;5106547;28;20035;-33
2022/09/01 08:31:40;;;;;;;12.30;9.60;;;;;;;27.61;57.26;99768.16;5088018;28;20681;-28
2022/09/01 08:34:05;;;;;;;13.73;8.63;;;;;;;27.75;55.31;99758.81;5106402;28;20024;-30
2022/09/01 08:36:32;;;;;;;13.15;9.40;;;;;;;28.17;53.40;99762.13;5087734;28;20127;-32
2022/09/01 08:38:57;;;;;;;12.88;9.10;;;;;;;27.98;53.94;99770.13;5090274;28;20035;-36
2022/09/01 08:42:13;;;;;;;10.88;8.60;;;;;;;28.44;53.31;99776.22;5109984;28;20028;-30
2022/09/01 08:44:47;;;;;;;13.82;8.50;;;;;;;28.09;53.10;99757.56;5048164;28;20664;-29
2022/09/01 08:47:16;;;;;;;13.02;8.70;;;;;;;28.14;53.67;99740.09;5109729;28;20054;-31
2022/09/01 08:49:45;;;;;;;157.55;94.55;;;;;;;28.53;50.99;99757.75;5110064;28;20114;-32
2022/09/01 08:52:23;;;;;;;13.95;8.57;;;;;;;28.94;53.17;99750.28;5091526;28;20043;-29
2022/09/01 08:54:55;;;;;;;12.70;7.63;;;;;;;29.14;52.49;99745.75;5086922;28;20051;-30
2022/09/01 08:57:28;;;;;;;10.98;7.20;;;;;;;29.02;51.75;99740.28;5091513;28;20059;-32
2022/09/01 08:59:54;;;;;;;12.65;7.43;;;;;;;29.19;49.72;99737.22;5089638;28;20024;-29
2022/09/01 09:02:36;;;;;;;12.40;6.65;;;;;;;29.20;51.80;99730.59;5109676;28;20135;-31
2022/09/01 09:05:20;;;;;;;9.85;5.72;;;;;;;29.25;47.92;99744.06;5109641;28;20027;-34
2022/09/01 09:08:16;;;;;;;9.38;6.35;;;;;;;29.34;49.16;99723.88;5109454;28;20032;-35
2022/09/01 09:10:54;;;;;;;13.48;6.15;;;;;;;29.39;47.99;99742.84;5109781;28;20870;-28
2022/09/01 09:13:58;;;;;;;9.32;5.90;;;;;;;29.46;47.94;99734.78;5109363;28;20115;-29
2022/09/01 09:16:33;;;;;;;9.82;6.75;;;;;;;28.98;48.86;99722.94;5089565;28;20032;-31
2022/09/01 09:19:18;;;;;;;11.80;6.55;;;;;;;28.91;49.32;99717.22;5090855;28;20970;-33
2022/09/01 09:21:46;;;;;;;12.18;6.70;;;;;;;28.56;49.81;99718.63;5090566;28;20031;-31
2022/09/01 09:24:16;;;;;;;11.98;6.18;;;;;;;28.89;47.92;99723.09;5090441;28;20055;-29
2022/09/01 09:26:47;;;;;;;10.00;5.95;;;;;;;29.31;47.42;99713.59;5090395;28;20063;-32
2022/09/01 09:29:13;;;;;;;12.77;6.00;;;;;;;29.67;47.56;99707.03;5090727;28;20032;-31
2022/09/01 09:31:44;;;;;;;10.27;4.63;;;;;;;29.93;46.50;99711.97;5088560;28;20166;-29
2022/09/01 09:34:36;;;;;;;9.48;5.10;;;;;;;29.98;46.74;99703.47;5087043;28;20047;-33
2022/09/01 09:37:18;;;;;;;9.05;5.70;;;;;;;30.15;45.00;99706.97;5070037;28;20036;-30
2022/09/01 09:39:44;;;;;;;10.15;5.90;;;;;;;30.27;43.80;99690.31;5088973;28;20028;-31
2022/09/01 09:42:13;;;;;;;12.43;5.18;;;;;;;30.19;41.33;99691.34;5088948;28;20454;-34
2022/09/01 09:44:44;;;;;;;8.77;5.03;;;;;;;30.11;41.37;99700.59;5087929;28;20035;-30
2022/09/01 09:47:30;;;;;;;11.23;4.70;;;;;;;30.07;42.50;99696.97;5095356;28;20494;-29
2022/09/01 09:50:13;;;;;;;10.25;5.15;;;;;;;30.32;42.08;99703.03;5108305;28;20028;-29
2022/09/01 09:52:38;;;;;;;11.00;5.40;;;;;;;30.67;40.60;99694.72;5090098;28;20092;-30
2022/09/01 09:55:20;;;;;;;7.05;5.18;;;;;;;30.74;40.25;99694.81;5108351;28;20031;-28
2022/09/01 09:57:47;;;;;;;11.15;5.18;;;;;;;31.00;40.32;99693.38;5108564;28;20031;-29
2022/09/01 10:00:29;;;;;;;8.05;5.30;;;;;;;30.96;41.86;99684.25;5089789;28;20031;-34
2022/09/01 10:03:01;;;;;;;10.73;5.28;;;;;;;30.73;40.89;99676.75;5089926;28;20070;-30
2022/09/01 10:05:52;;;;;;;11.55;5.38;;;;;;;30.91;40.13;99692.81;5089949;28;20131;-29
2022/09/01 10:08:43;;;;;;;13.50;5.68;;;;;;;30.91;38.30;99687.28;5108183;28;20055;-30
2022/09/01 10:11:12;;;;;;;10.88;6.20;;;;;;;31.00;39.23;99679.63;5108231;28;20115;-31
2022/09/01 10:13:37;;;;;;;9.80;5.63;;;;;;;31.24;39.93;99693.00;5108120;28;20058;-29
2022/09/01 10:16:23;;;;;;;11.18;5.25;;;;;;;30.83;37.53;99691.84;5107885;28;20059;-31
2022/09/01 10:18:50;;;;;;;12.23;4.95;;;;;;;30.91;37.44;99685.34;5089624;28;20470;-32
2022/09/01 10:21:24;;;;;;;9.48;5.18;;;;;;;31.20;37.07;99688.59;5089147;28;20023;-29
2022/09/01 10:23:50;;;;;;;9.23;5.18;;;;;;;31.20;36.71;99670.13;5089719;28;20032;-31
2022/09/01 10:26:22;;;;;;;10.10;5.53;;;;;;;31.49;35.44;99683.56;5107855;28;20034;-32
2022/09/01 10:28:58;;;;;;;12.43;5.43;;;;;;;31.63;35.56;99683.81;5108053;28;20030;-33
2022/09/01 10:31:25;;;;;;;11.80;6.40;;;;;;;32.14;35.34;99674.28;5107476;28;20177;-31
2022/09/01 10:33:51;;;;;;;11.15;5.57;;;;;;;32.20;36.19;99683.84;5089631;28;20038;-31
2022/09/01 10:36:18;;;;;;;13.52;6.10;;;;;;;32.17;36.05;99676.31;5089193;28;20027;-29
2022/09/01 10:38:44;;;;;;;14.00;6.60;;;;;;;32.07;37.08;99676.97;5072725;28;20028;-30
2022/09/01 10:41:42;;;;;;;9.57;6.47;;;;;;;31.49;38.42;99669.78;5089157;28;20031;-29
2022/09/01 10:44:10;;;;;;;11.82;5.80;;;;;;;31.67;38.50;99667.31;5089097;28;20034;-30
2022/09/01 10:46:35;;;;;;;12.18;6.18;;;;;;;32.06;38.63;99662.41;5107410;28;20652;-29
2022/09/01 10:49:01;;;;;;;13.90;6.68;;;;;;;31.96;36.70;99646.47;5107113;28;20020;-32
2022/09/01 10:51:26;;;;;;;11.57;6.82;;;;;;;32.41;38.55;99655.72;5107045;28;20053;-29
2022/09/01 10:53:57;;;;;;;12.60;6.00;;;;;;;32.08;37.32;99642.69;5107269;28;20020;-31
2022/09/01 10:56:41;;;;;;;10.35;5.97;;;;;;;31.97;37.11;99643.31;5088488;28;20035;-29
2022/09/01 10:59:06;;;;;;;13.60;6.40;;;;;;;32.25;36.62;99635.84;5088720;28;20053;-30
2022/09/01 11:01:40;;;;;;;13.20;6.93;;;;;;;32.72;36.91;99634.41;5106093;28;20580;-29
2022/09/01 11:04:13;;;;;;;14.27;7.65;;;;;;;32.44;37.82;99621.84;5107121;28;20023;-29
2022/09/01 11:06:43;;;;;;;10.95;6.60;;;;;;;33.22;35.27;99624.63;5088477;28;20028;-28
2022/09/01 11:09:18;;;;;;;11.95;6.82;;;;;;;32.97;37.98;99624.34;5088576;28;20410;-28
2022/09/01 11:12:04;;;;;;;18.45;6.88;;;;;;;32.82;36.14;99617.94;5107062;28;20625;-29
2022/09/01 11:14:34;;;;;;;10.80;6.30;;;;;;;33.22;34.72;99609.97;5107075;28;20027;-32
2022/09/01 11:17:14;;;;;;;11.95;6.63;;;;;;;34.10;34.31;99619.19;5106659;28;20114;-34
2022/09/01 11:19:57;;;;;;;11.75;5.47;;;;;;;33.91;32.77;99600.16;5107164;28;20038;-30
2022/09/01 11:22:33;;;;;;;11.90;6.35;;;;;;;33.21;33.30;99623.00;5106802;28;20055;-29
2022/09/01 11:25:25;;;;;;;13.57;6.20;;;;;;;33.03;34.86;99608.25;5106762;28;20487;-30
2022/09/01 11:27:50;;;;;;;11.02;6.20;;;;;;;33.25;33.28;99625.81;5106515;28;20082;-30
2022/09/01 11:30:31;;;;;;;14.65;6.40;;;;;;;33.32;34.00;99614.78;5106774;28;20502;-29
2022/09/01 11:33:10;;;;;;;13.75;6.45;;;;;;;33.37;33.48;99592.34;5088505;28;20050;-29
2022/09/01 11:35:36;;;;;;;12.02;9.07;;;;;;;34.10;33.19;99607.34;5088099;28;20031;-33
2022/09/01 11:38:06;;;;;;;12.48;7.28;;;;;;;34.41;33.46;99600.38;5106303;28;20023;-29
2022/09/01 11:40:33;;;;;;;11.90;6.50;;;;;;;34.19;31.66;99599.50;5088268;28;20092;-28